This is the latest recevied weather packets stored in our database for station/object KO4ILY. If no packets are shown the sender has not sent any weather packets the latest 10 day(s).
| Time | Temp. | Humidity | Pressure | Rain* | Wind** | Luminosity | Snow |
|---|---|---|---|---|---|---|---|
| 1777791606 | 7.78° C | 82% | 1019.6 hPa | 0 mm | - | - | - |
| 1777788005 | 8.89° C | 76% | 1019.4 hPa | 0 mm | - | - | - |
| 1777784406 | 8.89° C | 74% | 1018.9 hPa | 0 mm | - | - | - |
| 1777780806 | 10.56° C | 67% | 1018.5 hPa | 0 mm | - | - | - |
| 1777777205 | 12.22° C | 60% | 1018 hPa | 0 mm | - | - | - |
| 1777773606 | 13.89° C | 54% | 1017.1 hPa | 0 mm | - | - | - |
| 1777770005 | 15.56° C | 47% | 1016 hPa | 0 mm | - | - | - |
| 1777766406 | 16.11° C | 43% | 1014.8 hPa | 0 mm | - | - | - |
| 1777762805 | 17.78° C | 40% | 1014.2 hPa | 0 mm | - | - | - |
| 1777759206 | 18.89° C | 38% | 1013.9 hPa | 0 mm | - | - | - |
| 1777755605 | 18.33° C | 40% | 1013.9 hPa | 0 mm | - | - | - |
| 1777752005 | 18.89° C | 37% | 1014 hPa | 0 mm | - | - | - |
| 1777748406 | 18.89° C | 40% | 1014.1 hPa | 0 mm | - | - | - |
| 1777744806 | 17.78° C | 41% | 1014.5 hPa | 0 mm | - | - | - |
| 1777741206 | 17.78° C | 40% | 1015 hPa | 0 mm | - | - | - |
| 1777737605 | 15.56° C | 48% | 1015.6 hPa | 0 mm | - | - | - |
| 1777734006 | 16.11° C | 48% | 1015.1 hPa | 0 mm | - | - | - |
| 1777730406 | 13.89° C | 52% | 1015.2 hPa | 0 mm | - | - | - |
| 1777726805 | 12.22° C | 59% | 1015.3 hPa | 0 mm | - | - | - |
| 1777723205 | 11.11° C | 63% | 1015.1 hPa | 0 mm | - | - | - |
| 1777719605 | 11.67° C | 59% | 1014.6 hPa | 0 mm | - | - | - |
| 1777716006 | 12.22° C | 56% | 1014.4 hPa | 0 mm | - | - | - |
| 1777712405 | 12.22° C | 57% | 1014.2 hPa | 0 mm | - | - | - |
| 1777708806 | 12.22° C | 55% | 1014.4 hPa | 0 mm | - | - | - |
| 1777705205 | 12.78° C | 53% | 1015.2 hPa | 0 mm | - | - | - |
* Rain latest hour (hover to see other rain measurements)
** Current wind speed in m/s (hover to see current wind gust speed)